Time;durP1;ratioP1;P1;durP2;ratioP2;P2;SDS_P1;SDS_P2;PMS_P1;PMS_P2;Temp;Humidity;BMP_temperature;BMP_pressure;BME280_temperature;BME280_humidity;BME280_pressure;Samples;Min_cycle;Max_cycle;Signal;HPM_P1;HPM_P2
2022/03/17 00:00:10;;;;;;;230.60;100.40;;;;;;;-0.09;66.96;99930.98;107373;1285;22725;-72
2022/03/17 00:02:38;;;;;;;207.90;97.00;;;;;;;-0.12;66.94;99933.21;107839;1284;22556;-74
2022/03/17 00:05:10;;;;;;;206.80;95.50;;;;;;;-0.14;67.11;99934.92;107410;1286;22583;-71
2022/03/17 00:07:39;;;;;;;234.30;105.40;;;;;;;-0.11;67.00;99935.61;107378;1287;25419;-70
2022/03/17 00:10:14;;;;;;;219.20;103.60;;;;;;;-0.09;67.51;99939.72;107374;1286;25276;-70
2022/03/17 00:12:42;;;;;;;212.80;99.80;;;;;;;-0.08;68.22;99940.05;107410;1286;22727;-70
2022/03/17 00:15:10;;;;;;;223.90;103.00;;;;;;;-0.12;68.38;99942.80;107380;1287;22656;-70
2022/03/17 00:17:37;;;;;;;227.40;104.40;;;;;;;-0.14;68.24;99943.48;107349;1286;22660;-73
2022/03/17 00:20:07;;;;;;;232.60;101.50;;;;;;;-0.15;68.12;99948.10;107360;1287;25389;-77
2022/03/17 00:22:34;;;;;;;219.20;95.50;;;;;;;-0.16;67.92;99945.70;107355;1286;22652;-79
2022/03/17 00:25:01;;;;;;;211.60;94.50;;;;;;;-0.19;67.63;99948.64;107391;1285;22575;-75
2022/03/17 00:27:28;;;;;;;213.60;93.10;;;;;;;-0.21;67.57;99951.55;107366;1286;22556;-76
2022/03/17 00:29:56;;;;;;;216.40;93.90;;;;;;;-0.23;67.56;99953.08;107375;1287;22544;-72
2022/03/17 00:32:24;;;;;;;212.70;95.30;;;;;;;-0.20;67.68;99955.31;107378;1287;22659;-70
2022/03/17 00:37:37;;;;;;;212.40;89.20;;;;;;;-0.18;69.03;99957.20;107384;1287;22716;-70
2022/03/17 00:40:05;;;;;;;298.90;129.00;;;;;;;-0.21;69.34;99958.05;107381;1286;22632;-70
2022/03/17 00:42:32;;;;;;;375.20;159.80;;;;;;;-0.24;69.38;99959.23;107391;1285;22617;-71
2022/03/17 00:44:59;;;;;;;407.00;182.70;;;;;;;-0.26;69.16;99954.79;107351;1286;24410;-70
2022/03/17 00:47:26;;;;;;;398.70;174.60;;;;;;;-0.28;69.06;99953.44;107386;1285;23558;-71
2022/03/17 00:49:53;;;;;;;421.20;186.60;;;;;;;-0.32;68.78;99951.02;107242;1285;27654;-70
2022/03/17 00:52:20;;;;;;;355.70;154.70;;;;;;;-0.35;68.74;99951.70;107344;1284;24278;-70
2022/03/17 00:54:47;;;;;;;375.10;166.70;;;;;;;-0.32;68.85;99950.69;107399;1284;23493;-70
2022/03/17 00:57:15;;;;;;;353.40;156.50;;;;;;;-0.30;69.33;99951.55;107409;1285;22841;-72
2022/03/17 00:59:42;;;;;;;314.50;132.20;;;;;;;-0.29;69.89;99950.52;107400;1284;22675;-70
2022/03/17 01:02:09;;;;;;;260.90;113.20;;;;;;;-0.31;69.84;99946.92;107413;1284;22567;-70
2022/03/17 01:04:36;;;;;;;250.70;109.30;;;;;;;-0.33;70.00;99945.20;107384;1287;22549;-70
2022/03/17 01:07:04;;;;;;;216.70;94.00;;;;;;;-0.33;69.68;99945.73;107420;1283;25305;-70
2022/03/17 01:09:32;;;;;;;202.20;91.20;;;;;;;-0.33;69.65;99942.30;107369;1284;22821;-70
2022/03/17 01:11:59;;;;;;;198.40;87.80;;;;;;;-0.33;69.41;99944.35;107381;1285;22636;-70
2022/03/17 01:14:26;;;;;;;197.00;85.40;;;;;;;-0.34;69.31;99942.98;107364;1284;22673;-70
2022/03/17 01:16:54;;;;;;;172.90;78.70;;;;;;;-0.33;69.77;99940.42;107386;1284;22587;-70
2022/03/17 01:19:21;;;;;;;143.50;72.00;;;;;;;-0.29;69.32;99937.33;107410;1285;22564;-71
2022/03/17 01:21:49;;;;;;;124.20;63.60;;;;;;;-0.22;69.57;99940.25;107381;1285;24796;-70
2022/03/17 01:24:17;;;;;;;113.50;55.50;;;;;;;-0.13;70.20;99941.42;107266;1285;22688;-71
2022/03/17 01:26:44;;;;;;;119.40;60.60;;;;;;;-0.06;70.74;99942.95;107421;1284;24280;-70
2022/03/17 01:29:11;;;;;;;123.90;61.10;;;;;;;0.03;70.25;99943.11;107409;1284;22697;-70
2022/03/17 01:31:38;;;;;;;117.00;57.90;;;;;;;0.07;70.15;99940.55;107384;1284;22561;-71
2022/03/17 01:34:05;;;;;;;117.50;58.90;;;;;;;0.11;70.09;99947.71;107375;1284;22685;-70
2022/03/17 01:36:32;;;;;;;132.80;63.20;;;;;;;0.12;69.66;99947.20;107388;1284;22644;-70
2022/03/17 01:38:59;;;;;;;150.60;68.90;;;;;;;0.11;69.55;99951.48;107361;1284;22637;-70
2022/03/17 01:41:26;;;;;;;139.00;66.50;;;;;;;0.11;69.35;99951.83;107400;1284;22563;-71
2022/03/17 01:43:53;;;;;;;149.60;72.90;;;;;;;0.14;69.16;99951.83;107422;1284;22586;-70
2022/03/17 01:46:21;;;;;;;144.40;71.90;;;;;;;0.18;69.40;99950.62;107179;1284;22640;-70
2022/03/17 01:48:48;;;;;;;198.30;94.40;;;;;;;0.22;70.26;99954.20;107392;1284;22803;-70
2022/03/17 01:51:15;;;;;;;212.50;98.90;;;;;;;0.22;70.54;99950.95;107420;1284;24276;-70
2022/03/17 01:53:43;;;;;;;178.30;81.90;;;;;;;0.22;70.33;99951.80;107382;1284;22556;-70
2022/03/17 01:56:10;;;;;;;191.00;87.80;;;;;;;0.22;70.23;99953.35;107450;1284;22531;-70
2022/03/17 01:58:37;;;;;;;161.10;74.70;;;;;;;0.20;70.02;99949.23;107365;1284;22548;-70
2022/03/17 02:01:04;;;;;;;142.00;68.50;;;;;;;0.17;70.00;99947.71;107393;1283;22615;-70
2022/03/17 02:03:31;;;;;;;125.90;64.60;;;;;;;0.15;69.94;99950.98;107387;1284;22723;-70
2022/03/17 02:05:58;;;;;;;123.60;62.90;;;;;;;0.16;69.90;99952.34;107433;1284;24073;-73
2022/03/17 02:08:27;;;;;;;138.60;69.20;;;;;;;0.22;69.99;99951.12;107410;1284;24369;-80
2022/03/17 02:13:40;;;;;;;131.20;64.40;;;;;;;0.31;71.04;99963.27;107358;1284;22586;-72
2022/03/17 02:16:07;;;;;;;140.00;67.10;;;;;;;0.31;70.97;99964.46;107267;1285;22692;-73
2022/03/17 02:18:34;;;;;;;136.60;62.80;;;;;;;0.32;70.83;99963.44;107408;1284;22574;-70
2022/03/17 02:21:01;;;;;;;128.70;58.20;;;;;;;0.37;70.83;99961.02;107407;1284;25343;-70
2022/03/17 02:26:14;;;;;;;135.60;65.40;;;;;;;0.46;70.24;99966.64;107402;1284;22580;-70
2022/03/17 02:28:41;;;;;;;130.60;65.20;;;;;;;0.49;70.16;99964.91;107475;1284;22577;-70
2022/03/17 02:31:08;;;;;;;128.80;60.00;;;;;;;0.51;70.06;99969.72;107466;1284;22725;-77
2022/03/17 02:33:38;;;;;;;118.80;58.30;;;;;;;0.52;69.86;99969.72;107441;1284;22632;-72
2022/03/17 02:36:05;;;;;;;130.80;62.60;;;;;;;0.57;70.23;99970.38;107437;1284;22660;-72
2022/03/17 02:38:33;;;;;;;115.70;57.40;;;;;;;0.61;70.50;99971.40;107423;1284;22735;-72
2022/03/17 02:41:00;;;;;;;102.90;51.70;;;;;;;0.65;71.22;99969.30;107422;1284;22577;-76
2022/03/17 02:43:27;;;;;;;109.00;56.30;;;;;;;0.63;71.52;99965.04;107418;1284;22702;-73
2022/03/17 02:45:54;;;;;;;101.70;50.80;;;;;;;0.62;71.39;99964.89;107417;1283;22588;-73
2022/03/17 02:48:21;;;;;;;89.50;48.00;;;;;;;0.60;71.23;99968.14;107396;1284;22595;-69
2022/03/17 02:50:49;;;;;;;102.20;51.10;;;;;;;0.61;71.13;99974.31;107412;1284;22554;-70
2022/03/17 02:53:17;;;;;;;97.90;47.80;;;;;;;0.61;70.81;99978.94;107430;1284;22667;-70
2022/03/17 02:55:45;;;;;;;104.30;49.10;;;;;;;0.62;70.78;99979.98;107443;1284;22761;-70
2022/03/17 02:58:12;;;;;;;90.40;43.90;;;;;;;0.63;70.82;99982.52;107439;1284;23835;-72
2022/03/17 03:00:39;;;;;;;96.70;49.50;;;;;;;0.68;70.94;99988.85;107447;1284;22611;-70
2022/03/17 03:03:06;;;;;;;100.10;52.40;;;;;;;0.73;71.08;99993.29;107418;1285;22669;-70
2022/03/17 03:05:34;;;;;;;90.60;46.60;;;;;;;0.77;71.54;99996.36;107440;1284;23011;-70
2022/03/17 03:08:02;;;;;;;92.00;46.90;;;;;;;0.82;72.28;99994.63;107450;1284;22723;-72
2022/03/17 03:10:29;;;;;;;86.50;46.00;;;;;;;0.79;72.06;99996.36;107418;1284;22629;-71
2022/03/17 03:12:56;;;;;;;92.90;47.60;;;;;;;0.79;71.75;99992.93;107523;1284;22581;-70
2022/03/17 03:15:24;;;;;;;87.70;44.80;;;;;;;0.78;71.62;99986.42;107441;1284;22736;-73
2022/03/17 03:17:51;;;;;;;87.60;46.30;;;;;;;0.78;71.22;99979.55;107426;1284;22548;-70
2022/03/17 03:20:18;;;;;;;85.50;44.50;;;;;;;0.75;71.05;99978.36;107445;1284;22642;-70
2022/03/17 03:22:45;;;;;;;83.30;42.50;;;;;;;0.72;71.07;99977.67;107409;1284;22586;-70
2022/03/17 03:25:12;;;;;;;79.40;39.50;;;;;;;0.70;71.32;99982.33;107451;1284;24325;-70
2022/03/17 03:27:40;;;;;;;88.60;45.50;;;;;;;0.67;71.17;99985.08;107427;1284;22652;-70
2022/03/17 03:30:11;;;;;;;91.20;47.90;;;;;;;0.71;71.55;99992.45;107435;1284;22896;-70
2022/03/17 03:32:39;;;;;;;91.90;47.80;;;;;;;0.73;71.97;99996.88;107421;1284;22541;-71
2022/03/17 03:37:54;;;;;;;103.70;50.10;;;;;;;0.73;72.06;100011.12;107420;1284;26431;-70
2022/03/17 03:40:21;;;;;;;94.90;48.30;;;;;;;0.73;71.72;100014.38;107400;1284;22573;-73
2022/03/17 03:42:48;;;;;;;88.20;47.60;;;;;;;0.72;71.34;100015.75;107411;1284;26541;-70
2022/03/17 03:45:15;;;;;;;96.70;50.50;;;;;;;0.71;71.21;100015.77;107396;1285;22665;-70
2022/03/17 03:47:43;;;;;;;98.50;51.90;;;;;;;0.68;70.86;100016.29;107428;1285;22565;-70
2022/03/17 03:50:10;;;;;;;102.20;53.90;;;;;;;0.66;70.74;100016.46;107427;1285;23005;-70
2022/03/17 03:52:37;;;;;;;105.20;51.20;;;;;;;0.62;70.59;100015.45;107448;1285;22605;-70
2022/03/17 03:55:05;;;;;;;170.00;71.30;;;;;;;0.65;70.89;100015.09;107250;1285;22677;-70
2022/03/17 03:57:32;;;;;;;107.00;53.30;;;;;;;0.66;71.55;100017.83;107365;1285;22557;-71
2022/03/17 03:59:59;;;;;;;102.10;50.40;;;;;;;0.65;72.10;100019.36;107670;1284;25314;-73
2022/03/17 04:02:27;;;;;;;95.90;50.70;;;;;;;0.60;72.13;100019.91;107677;1284;22557;-72
2022/03/17 04:04:54;;;;;;;92.00;45.20;;;;;;;0.55;72.09;100020.43;107682;1285;24286;-72
2022/03/17 04:07:21;;;;;;;109.90;54.10;;;;;;;0.51;72.07;100017.71;107701;1284;22541;-70
2022/03/17 04:09:48;;;;;;;129.80;59.40;;;;;;;0.47;71.91;100023.37;107683;1285;22548;-70
2022/03/17 04:12:15;;;;;;;137.80;61.10;;;;;;;0.45;71.60;100024.24;107705;1285;22556;-72
2022/03/17 04:14:42;;;;;;;106.70;53.40;;;;;;;0.42;71.55;100024.08;107477;1285;22603;-70
2022/03/17 04:17:09;;;;;;;97.20;47.20;;;;;;;0.39;71.77;100027.84;107704;1284;23959;-70
2022/03/17 04:19:36;;;;;;;132.60;61.10;;;;;;;0.40;71.98;100023.05;107681;1285;22590;-73
2022/03/17 04:22:04;;;;;;;148.30;69.30;;;;;;;0.42;72.38;100024.77;107701;1285;24264;-70
2022/03/17 04:24:31;;;;;;;99.60;51.70;;;;;;;0.43;72.93;100024.94;107687;1285;22591;-70
2022/03/17 04:26:58;;;;;;;106.30;54.30;;;;;;;0.42;72.96;100023.73;107673;1284;22567;-77
2022/03/17 04:29:25;;;;;;;105.10;52.30;;;;;;;0.41;72.69;100027.50;107702;1284;22576;-72
2022/03/17 04:31:52;;;;;;;83.00;42.50;;;;;;;0.41;72.58;100023.21;107485;1285;22632;-71
2022/03/17 04:34:20;;;;;;;82.20;44.50;;;;;;;0.40;72.71;100027.16;107500;1285;22591;-71
2022/03/17 04:36:47;;;;;;;73.10;38.60;;;;;;;0.41;72.66;100032.30;107678;1285;22642;-71
2022/03/17 04:39:14;;;;;;;106.00;54.80;;;;;;;0.45;72.80;100037.08;107679;1284;22559;-71
2022/03/17 04:41:41;;;;;;;110.50;57.70;;;;;;;0.48;73.17;100039.48;107711;1285;22548;-71
2022/03/17 04:44:09;;;;;;;81.10;41.70;;;;;;;0.51;73.18;100042.05;107529;1282;22640;-71
2022/03/17 04:46:36;;;;;;;97.80;50.10;;;;;;;0.51;73.05;100040.85;107719;1285;22567;-72
2022/03/17 04:49:03;;;;;;;103.50;52.40;;;;;;;0.50;72.78;100044.96;107700;1285;22707;-71
2022/03/17 04:51:31;;;;;;;107.10;57.40;;;;;;;0.48;72.46;100038.63;107694;1284;22540;-71
2022/03/17 04:53:59;;;;;;;111.40;56.90;;;;;;;0.47;72.23;100038.28;107678;1284;22649;-71
2022/03/17 04:56:26;;;;;;;112.30;54.10;;;;;;;0.46;71.90;100042.22;107707;1284;22547;-83
2022/03/17 04:58:53;;;;;;;118.70;56.90;;;;;;;0.45;71.92;100044.96;107687;1284;22567;-71
2022/03/17 05:01:20;;;;;;;106.30;55.20;;;;;;;0.43;71.78;100049.79;107675;1285;25269;-72
2022/03/17 05:03:47;;;;;;;93.20;48.50;;;;;;;0.42;71.60;100047.39;107448;1285;22574;-71
2022/03/17 05:06:15;;;;;;;94.70;52.30;;;;;;;0.40;71.71;100044.30;107669;1284;22678;-72
2022/03/17 05:08:43;;;;;;;113.70;60.90;;;;;;;0.44;71.81;100038.65;107690;1284;22637;-71
2022/03/17 05:11:11;;;;;;;109.40;57.90;;;;;;;0.46;72.43;100036.74;107661;1284;22560;-71
2022/03/17 05:13:39;;;;;;;93.60;48.70;;;;;;;0.47;72.72;100031.59;107686;1284;22890;-75
2022/03/17 05:16:07;;;;;;;101.80;51.90;;;;;;;0.47;72.63;100034.68;107696;1285;23217;-73
2022/03/17 05:18:35;;;;;;;93.90;49.70;;;;;;;0.46;72.39;100036.91;107723;1284;22549;-72
2022/03/17 05:21:03;;;;;;;95.00;50.00;;;;;;;0.44;72.23;100036.07;107686;1284;22632;-71
2022/03/17 05:23:31;;;;;;;89.00;49.20;;;;;;;0.44;72.28;100035.57;107669;1284;22554;-72
2022/03/17 05:25:58;;;;;;;96.70;53.70;;;;;;;0.42;72.21;100039.51;107428;1285;22689;-71
2022/03/17 05:28:26;;;;;;;113.20;61.20;;;;;;;0.46;72.26;100043.09;107663;1284;22665;-71
2022/03/17 05:30:54;;;;;;;104.30;56.20;;;;;;;0.57;72.52;100044.42;107681;1284;22556;-72
2022/03/17 05:33:22;;;;;;;109.30;58.80;;;;;;;0.71;72.81;100044.73;107713;1285;25366;-72
2022/03/17 05:35:49;;;;;;;101.00;55.80;;;;;;;0.89;72.94;100049.64;107672;1284;22726;-71
2022/03/17 05:38:16;;;;;;;104.00;59.30;;;;;;;0.98;72.78;100058.02;107673;1284;22889;-71
2022/03/17 05:40:44;;;;;;;101.70;56.70;;;;;;;1.12;72.67;100062.76;107663;1284;22602;-78
2022/03/17 05:43:11;;;;;;;106.80;57.70;;;;;;;1.26;72.08;100068.36;107717;1284;22564;-71
2022/03/17 05:45:40;;;;;;;90.90;49.40;;;;;;;1.41;71.36;100068.45;107705;1284;22560;-71
2022/03/17 05:48:09;;;;;;;94.40;47.80;;;;;;;1.51;70.80;100069.77;107421;1285;22663;-73
2022/03/17 05:50:41;;;;;;;97.60;55.50;;;;;;;1.63;70.63;100076.05;107395;1285;24451;-74
2022/03/17 05:53:10;;;;;;;86.60;49.90;;;;;;;1.75;70.16;100082.33;107719;1284;22607;-71
2022/03/17 05:55:37;;;;;;;88.60;51.40;;;;;;;1.87;69.60;100083.10;107508;1284;22610;-71
2022/03/17 05:58:05;;;;;;;111.00;59.00;;;;;;;1.98;69.77;100085.27;107444;1284;24416;-71
2022/03/17 06:00:35;;;;;;;113.40;60.50;;;;;;;2.11;69.53;100088.79;107450;1283;22629;-72
2022/03/17 06:03:04;;;;;;;97.30;53.60;;;;;;;2.23;68.93;100088.66;107501;1284;22562;-72
2022/03/17 06:05:31;;;;;;;91.70;53.90;;;;;;;2.33;68.08;100085.67;107480;1284;22638;-71
2022/03/17 06:08:00;;;;;;;93.80;54.30;;;;;;;2.39;67.58;100084.23;107548;1283;23184;-71
2022/03/17 06:10:32;;;;;;;101.40;58.30;;;;;;;2.47;66.81;100085.37;107452;1284;22624;-76
2022/03/17 06:13:01;;;;;;;103.20;56.40;;;;;;;2.51;66.24;100089.80;107634;1285;22735;-71
2022/03/17 06:15:29;;;;;;;94.50;51.90;;;;;;;2.53;65.69;100093.03;107515;1284;22556;-73
2022/03/17 06:17:58;;;;;;;106.40;57.70;;;;;;;2.47;65.16;100095.34;107455;1284;23380;-71
2022/03/17 06:20:30;;;;;;;102.10;55.20;;;;;;;2.42;65.14;100098.13;107472;1284;22551;-71
2022/03/17 06:23:01;;;;;;;112.00;57.70;;;;;;;2.38;64.99;100098.01;107490;1284;22556;-71
2022/03/17 06:25:30;;;;;;;90.70;48.80;;;;;;;2.38;64.92;100102.30;107534;1284;22564;-78
2022/03/17 06:27:57;;;;;;;118.30;60.90;;;;;;;2.38;64.70;100104.02;107480;1284;22571;-72
2022/03/17 06:30:34;;;;;;;89.20;50.10;;;;;;;2.38;64.81;100110.38;107454;1284;22565;-72
2022/03/17 06:33:04;;;;;;;98.10;52.60;;;;;;;2.40;64.41;100109.34;107485;1284;22651;-71
2022/03/17 06:35:32;;;;;;;102.00;54.40;;;;;;;2.40;64.31;100116.39;107162;1287;24366;-72
2022/03/17 06:38:02;;;;;;;81.80;43.20;;;;;;;2.42;64.44;100114.13;107130;1287;22580;-72
2022/03/17 06:40:30;;;;;;;84.80;44.90;;;;;;;2.45;63.97;100116.84;107160;1287;25319;-72
2022/03/17 06:42:58;;;;;;;91.10;48.70;;;;;;;2.48;63.92;100118.73;107149;1287;22567;-76
2022/03/17 06:45:26;;;;;;;90.70;50.50;;;;;;;2.50;63.66;100121.98;107155;1287;22549;-72
2022/03/17 06:47:54;;;;;;;92.20;48.20;;;;;;;2.54;63.54;100127.60;107139;1287;25454;-72
2022/03/17 06:50:22;;;;;;;81.80;43.30;;;;;;;2.59;63.30;100134.10;107250;1287;23119;-72
2022/03/17 06:52:50;;;;;;;98.00;55.70;;;;;;;2.64;63.18;100140.23;107306;1287;22581;-72
2022/03/17 06:55:19;;;;;;;92.90;53.10;;;;;;;2.70;63.30;100141.04;107124;1287;22681;-72
2022/03/17 06:57:46;;;;;;;95.50;54.30;;;;;;;2.77;62.93;100139.42;107366;1287;22615;-72
2022/03/17 07:00:15;;;;;;;101.00;55.30;;;;;;;2.85;62.88;100145.71;107123;1287;22607;-71
2022/03/17 07:02:42;;;;;;;89.80;46.40;;;;;;;2.94;62.83;100152.68;107186;1286;22695;-72
2022/03/17 07:05:10;;;;;;;91.10;51.10;;;;;;;3.04;62.74;100159.11;107155;1287;22617;-73
2022/03/17 07:07:38;;;;;;;76.30;42.20;;;;;;;3.11;62.45;100162.49;107198;1287;22554;-72
2022/03/17 07:10:06;;;;;;;76.70;39.80;;;;;;;3.17;62.28;100165.17;107166;1287;22658;-70
2022/03/17 07:12:38;;;;;;;72.30;40.20;;;;;;;3.22;61.55;100169.07;107170;1287;22636;-71
2022/03/17 07:15:06;;;;;;;87.90;45.00;;;;;;;3.28;61.28;100167.63;107168;1287;24293;-71
2022/03/17 07:17:39;;;;;;;79.90;42.60;;;;;;;3.34;60.72;100163.42;107126;1287;22599;-71
2022/03/17 07:20:18;;;;;;;76.90;42.90;;;;;;;3.40;60.21;100162.83;107183;1287;22759;-71
2022/03/17 07:22:49;;;;;;;77.20;44.10;;;;;;;3.47;59.79;100166.20;107162;1287;22866;-71
2022/03/17 07:25:20;;;;;;;69.60;39.30;;;;;;;3.54;59.43;100169.39;107147;1287;22554;-72
2022/03/17 07:27:48;;;;;;;74.20;42.40;;;;;;;3.64;59.34;100170.81;107160;1287;25308;-71
2022/03/17 07:30:20;;;;;;;70.90;40.90;;;;;;;3.75;59.04;100175.30;107127;1287;22651;-77
2022/03/17 07:32:52;;;;;;;67.80;37.10;;;;;;;3.86;58.62;100171.38;107142;1287;22552;-72
2022/03/17 07:35:20;;;;;;;74.40;41.80;;;;;;;3.97;58.37;100176.92;107457;1285;22571;-74
2022/03/17 07:37:47;;;;;;;76.70;41.30;;;;;;;4.06;57.62;100177.66;107507;1285;22737;-70
2022/03/17 07:40:14;;;;;;;76.00;39.80;;;;;;;4.13;57.28;100178.23;107213;1284;22661;-71
2022/03/17 07:42:41;;;;;;;63.00;35.90;;;;;;;4.27;55.41;100174.58;107483;1284;22718;-71
2022/03/17 07:45:09;;;;;;;60.30;33.80;;;;;;;4.36;55.28;100170.81;107508;1284;22586;-79
2022/03/17 07:47:44;;;;;;;52.70;32.30;;;;;;;4.48;53.92;100171.81;107486;1284;22565;-70
2022/03/17 07:50:11;;;;;;;50.80;30.10;;;;;;;4.59;53.11;100176.14;107642;1284;22558;-75
2022/03/17 07:52:38;;;;;;;57.40;29.90;;;;;;;4.66;53.16;100179.30;107493;1284;22576;-71
2022/03/17 07:55:06;;;;;;;55.90;31.50;;;;;;;4.75;52.66;100183.12;107196;1285;22685;-75
2022/03/17 07:57:35;;;;;;;52.10;30.50;;;;;;;4.84;53.15;100187.79;107567;1284;22547;-73
2022/03/17 08:00:07;;;;;;;55.10;30.50;;;;;;;4.95;52.89;100186.40;107534;1285;22891;-74
2022/03/17 08:02:35;;;;;;;53.10;30.20;;;;;;;5.07;53.09;100193.77;107777;1284;24279;-79
2022/03/17 08:05:02;;;;;;;55.00;30.10;;;;;;;5.17;52.25;100195.15;107464;1285;22564;-73
2022/03/17 08:07:30;;;;;;;52.70;29.70;;;;;;;5.25;51.82;100202.42;107759;1285;22553;-74
2022/03/17 08:09:59;;;;;;;50.70;29.70;;;;;;;5.35;52.20;100204.83;107738;1284;22545;-74
2022/03/17 08:12:26;;;;;;;44.70;26.60;;;;;;;5.44;52.39;100206.72;107748;1285;22605;-74
2022/03/17 08:14:54;;;;;;;42.10;22.90;;;;;;;5.56;51.44;100203.90;107754;1285;22587;-75
2022/03/17 08:17:21;;;;;;;42.70;26.80;;;;;;;5.64;49.79;100207.53;107736;1284;22641;-72
2022/03/17 08:19:48;;;;;;;45.20;26.00;;;;;;;5.70;49.42;100201.71;107755;1285;22644;-72
2022/03/17 08:22:15;;;;;;;47.90;28.90;;;;;;;5.74;48.56;100203.34;107754;1285;22629;-72
2022/03/17 08:24:42;;;;;;;48.20;30.70;;;;;;;5.77;48.74;100202.27;107761;1285;26028;-72
2022/03/17 08:27:09;;;;;;;54.40;33.20;;;;;;;5.80;48.81;100205.14;107763;1285;22534;-71
2022/03/17 08:29:38;;;;;;;51.60;29.50;;;;;;;5.89;48.00;100202.21;107427;1285;24365;-72
2022/03/17 08:32:07;;;;;;;50.80;31.80;;;;;;;5.94;47.30;100202.10;107744;1285;22557;-75
2022/03/17 08:34:34;;;;;;;42.00;25.70;;;;;;;5.97;47.24;100196.67;107775;1285;24268;-72
2022/03/17 08:37:01;;;;;;;41.00;25.80;;;;;;;6.00;47.07;100205.58;107749;1285;22572;-72
2022/03/17 08:39:29;;;;;;;43.10;22.90;;;;;;;6.05;47.90;100204.63;107776;1285;22566;-73
2022/03/17 08:41:57;;;;;;;28.50;19.00;;;;;;;6.16;47.78;100203.86;107790;1285;22654;-71
2022/03/17 08:44:24;;;;;;;34.60;20.30;;;;;;;6.23;46.48;100200.77;107762;1285;22638;-72
2022/03/17 08:49:36;;;;;;;35.20;21.20;;;;;;;6.30;46.77;100200.25;107779;1285;22584;-72
2022/03/17 08:52:04;;;;;;;35.60;21.60;;;;;;;6.38;46.84;100201.81;107807;1285;22639;-72
2022/03/17 08:54:34;;;;;;;40.60;23.00;;;;;;;6.50;47.35;100199.80;107762;1284;22572;-72
2022/03/17 08:57:03;;;;;;;27.20;16.70;;;;;;;6.62;46.65;100210.56;107477;1285;22581;-77
2022/03/17 08:59:34;;;;;;;120.20;89.20;;;;;;;6.72;45.07;100210.16;107773;1285;22686;-72
2022/03/17 09:02:05;;;;;;;28.60;18.40;;;;;;;6.78;44.98;100213.65;107790;1285;22549;-78
2022/03/17 09:04:33;;;;;;;23.80;13.60;;;;;;;6.83;43.68;100216.98;107796;1285;22636;-72
2022/03/17 09:07:02;;;;;;;23.10;14.30;;;;;;;6.86;42.60;100211.20;107764;1285;25258;-72
2022/03/17 09:09:31;;;;;;;20.20;11.60;;;;;;;6.85;42.50;100213.82;107773;1285;22803;-72
2022/03/17 09:11:59;;;;;;;22.70;12.80;;;;;;;6.91;41.53;100216.79;107746;1285;22541;-70
2022/03/17 09:14:26;;;;;;;23.80;15.30;;;;;;;6.93;41.21;100213.27;107768;1285;22545;-73
2022/03/17 09:16:53;;;;;;;19.10;12.20;;;;;;;6.90;41.74;100212.80;107758;1285;24326;-75
2022/03/17 09:19:20;;;;;;;19.90;11.60;;;;;;;6.94;41.70;100214.98;107758;1285;22614;-72
2022/03/17 09:21:48;;;;;;;19.70;11.40;;;;;;;7.00;41.45;100213.09;107791;1285;23263;-73
2022/03/17 09:24:15;;;;;;;18.50;11.00;;;;;;;7.03;41.45;100216.13;107758;1285;22565;-72
2022/03/17 09:26:42;;;;;;;17.80;11.50;;;;;;;7.10;40.62;100218.36;107758;1285;25370;-78
2022/03/17 09:29:09;;;;;;;19.80;11.40;;;;;;;7.10;40.32;100215.94;107493;1284;22589;-75
2022/03/17 09:31:36;;;;;;;18.00;10.20;;;;;;;7.14;40.75;100219.83;107789;1285;25495;-74
2022/03/17 09:34:04;;;;;;;17.50;9.70;;;;;;;7.21;39.90;100220.33;107779;1284;22776;-74
2022/03/17 09:36:31;;;;;;;17.00;10.90;;;;;;;7.22;40.09;100214.09;107788;1285;22610;-74
2022/03/17 09:41:44;;;;;;;16.70;10.60;;;;;;;7.32;40.19;100217.45;107758;1284;23021;-74
2022/03/17 09:44:11;;;;;;;18.80;10.00;;;;;;;7.37;39.78;100214.37;107712;1285;22554;-73
2022/03/17 09:46:41;;;;;;;22.90;12.10;;;;;;;7.40;40.31;100214.13;107776;1284;22565;-73
2022/03/17 09:49:10;;;;;;;19.60;12.30;;;;;;;7.48;39.65;100218.05;107748;1284;25325;-75
2022/03/17 09:51:40;;;;;;;25.80;13.20;;;;;;;7.49;39.34;100216.30;107765;1284;28096;-73
2022/03/17 09:54:07;;;;;;;27.80;15.70;;;;;;;7.55;39.50;100211.79;107775;1284;22806;-73
2022/03/17 09:56:34;;;;;;;23.90;13.40;;;;;;;7.61;39.76;100211.61;107616;1284;25158;-81
2022/03/17 09:59:02;;;;;;;24.30;13.10;;;;;;;7.69;39.79;100207.92;107496;1285;22715;-75
2022/03/17 10:01:29;;;;;;;23.80;11.90;;;;;;;7.74;39.33;100211.25;107071;1285;22645;-76
2022/03/17 10:03:58;;;;;;;22.30;12.80;;;;;;;7.78;38.62;100211.30;107468;1284;22691;-75
2022/03/17 10:06:26;;;;;;;17.40;10.80;;;;;;;7.81;38.30;100218.50;107474;1284;23069;-75
2022/03/17 10:08:54;;;;;;;21.70;12.90;;;;;;;7.78;38.01;100216.49;107510;1284;23114;-76
2022/03/17 10:11:27;;;;;;;23.10;12.80;;;;;;;7.81;38.67;100219.91;107469;1285;22588;-77
2022/03/17 10:13:56;;;;;;;20.00;10.90;;;;;;;7.85;38.52;100229.67;107473;1284;22544;-71
2022/03/17 10:16:24;;;;;;;17.60;10.20;;;;;;;7.86;38.39;100229.98;107451;1284;22553;-72
2022/03/17 10:19:05;;;;;;;19.10;11.50;;;;;;;7.92;38.53;100236.22;107561;1285;25076;-72
2022/03/17 10:21:34;;;;;;;22.40;14.50;;;;;;;7.99;38.44;100232.39;107519;1284;22580;-76
2022/03/17 10:24:06;;;;;;;22.30;13.50;;;;;;;8.03;38.46;100229.84;107507;1284;22566;-72
2022/03/17 10:26:36;;;;;;;26.30;15.50;;;;;;;8.08;38.53;100223.44;107511;1284;22595;-74
2022/03/17 10:29:24;;;;;;;22.00;12.50;;;;;;;8.15;38.91;100220.96;107534;1284;22725;-71
2022/03/17 10:31:58;;;;;;;27.50;14.80;;;;;;;8.28;38.98;100215.71;107316;1284;22556;-74
2022/03/17 10:34:29;;;;;;;25.20;14.60;;;;;;;8.36;39.23;100210.11;107523;1284;22622;-74
2022/03/17 10:37:13;;;;;;;22.80;12.80;;;;;;;8.47;38.58;100216.19;107492;1284;22610;-73
2022/03/17 10:39:44;;;;;;;24.50;15.30;;;;;;;8.59;37.88;100212.48;107537;1284;22569;-75
2022/03/17 10:42:14;;;;;;;19.80;13.30;;;;;;;8.60;38.04;100211.41;107548;1284;22738;-74
2022/03/17 10:44:46;;;;;;;21.40;13.90;;;;;;;8.70;37.57;100215.64;107543;1284;24280;-74
2022/03/17 10:47:14;;;;;;;24.20;16.10;;;;;;;8.75;37.13;100214.45;107515;1284;22541;-73
2022/03/17 10:50:03;;;;;;;25.70;15.30;;;;;;;8.76;36.98;100212.84;107498;1284;22716;-71
2022/03/17 10:52:52;;;;;;;37.30;20.00;;;;;;;8.75;36.87;100210.08;107176;1284;22589;-74
2022/03/17 10:55:25;;;;;;;31.00;17.50;;;;;;;8.66;37.28;100207.09;107566;1284;22566;-81
2022/03/17 10:57:53;;;;;;;;;;;;;;;8.72;37.55;100204.10;107797;1284;22588;-80
2022/03/17 11:00:23;;;;;;;23.30;12.70;;;;;;;8.79;37.35;100208.72;107687;1284;22548;-75
2022/03/17 11:02:53;;;;;;;24.20;15.00;;;;;;;8.82;37.01;100207.06;107641;1284;26516;-71
2022/03/17 11:05:21;;;;;;;24.60;14.80;;;;;;;8.85;36.70;100209.21;107736;1284;22546;-72
2022/03/17 11:07:48;;;;;;;27.00;14.90;;;;;;;8.84;36.18;100209.59;107757;1284;24435;-71
2022/03/17 11:10:16;;;;;;;32.20;16.40;;;;;;;8.84;36.09;100208.39;107761;1284;25403;-71
2022/03/17 11:12:43;;;;;;;23.50;14.20;;;;;;;8.83;36.37;100207.05;107451;1284;24230;-71
2022/03/17 11:15:10;;;;;;;25.90;14.10;;;;;;;8.86;37.09;100201.54;107769;1284;22909;-72
2022/03/17 11:17:42;;;;;;;23.70;15.00;;;;;;;8.91;36.21;100196.69;107802;1284;22618;-71
2022/03/17 11:20:12;;;;;;;31.30;15.30;;;;;;;8.94;36.08;100198.33;107772;1284;22777;-72
2022/03/17 11:22:39;;;;;;;25.80;15.20;;;;;;;8.99;36.38;100194.48;107761;1284;22593;-73
2022/03/17 11:25:20;;;;;;;30.10;16.70;;;;;;;9.12;36.08;100193.88;107761;1284;22561;-74
2022/03/17 11:27:48;;;;;;;28.80;15.50;;;;;;;9.21;36.03;100194.95;107770;1284;22664;-72